SKCC/CUC METAR and TAF weather

Enter ICAO airport designator
Station Type Date Time Source
SKCC METAR 2021/01/15 23:00 UTC NOAA

SKCC 152300Z 36006KT 340V040 9999 SCT018 SCT090 28/21 Q1011 RMK A2987


Station Type Date Time Source
SKCC Decoded METAR 2021/01/15 23:00 UTC NOAA

Cucuta / Camilo Daza, Colombia (SKCC) 07-56N 072-31W 317M
Jan 15, 2021 - 06:00 PM EST / 2021.01.15 2300 UTC
Wind: from the N (360 degrees) at 7 MPH (6 KT) (direction variable):0
Visibility: greater than 7 mile(s):0
Sky conditions: partly cloudy
Temperature: 82 F (28 C)
Dew Point: 69 F (21 C)
Relative Humidity: 65%
Pressure (altimeter): 29.85 in. Hg (1011 hPa)
ob: SKCC 152300Z 36006KT 340V040 9999 SCT018 SCT090 28/21 Q1011 RMK A2987
cycle: 23

Station Type Date Time Source
SKCC TAF 2021/01/15 18:57 UTC NOAA

TAF SKCC 151630Z 1518/1618 36012KT 9999 SCT020 SCT090
BECMG 1601/1603 VRB02KT TX32/1519Z TN21/1610Z

Example: see airport list